Songkhla, Thailand

2:09 AM ICT on October 01, 2014 (GMT +0700)
Hat Yai International | Change Station
CLOSE
Current Station
Airport
Location: Hat Yai,
Elevation: 89 ft
Nearby Weather Stations

Elev 89 ft 6.93 °N, 100.39 °E | Updated 9 minutes ago

Mostly Cloudy
Mostly Cloudy
73 °F
Feels Like 73 °F
N
2
Wind Variable Wind from SSE

Today
High -- | Low -- °F
--% Chance of Precip.
Yesterday
High -- | Low -- °F
Precip. -- in
6:05 AM 6:09 PM
Waxing Crescent, 39% visible
Pressure 29.80 in
Visibility 4.3 miles
Clouds Few 500 ft
Scattered Clouds 12000 ft
Mostly Cloudy 30000 ft
Dew Point 73 °F
Humidity 100%
Rainfall 0.00 in
Snow Depth Not available.
UV 0 out of 12
Pollen Not available.
Air Quality Not available.
Flu Activity Not available.
METAR VTSS 301900Z 16002KT 7000 2000W BR FEW005 SCT120 BKN300 23/23 Q1009 A2980 NOSIG

More Conditions Fewer Conditions

Pressure 29.80 in
Visibility 4.3 miles
Clouds Few 500 ft
Scattered Clouds 12000 ft
Mostly Cloudy 30000 ft
Dew Point 73 °F
Humidity 100%
Rainfall 0.00 in
Snow Depth Not available.
UV 0 out of 12
Pollen Not available.
Air Quality Not available.
Flu Activity Not available.
METAR VTSS 301900Z 16002KT 7000 2000W BR FEW005 SCT120 BKN300 23/23 Q1009 A2980 NOSIG

More Conditions Fewer Conditions

10-Day Weather Forecast

Almanac

Astronomy

Oct. 01, 2014 Rise Set
Actual Time 6:05 AM ICT 6:09 PM ICT
Civil Twilight 5:44 AM ICT 6:29 PM ICT
Nautical Twilight 5:20 AM ICT 6:54 PM ICT
Astronomical Twilight 4:56 AM ICT 7:18 PM ICT
Moon 11:49 AM ICT (10/1) 11:56 PM ICT (10/1)
Length of Visible Light 12h 45m
Length of Day
12h 03m
Tomorrow will be 0m 23s shorter.
Waxing Crescent, 39% of the Moon is Illuminated
Sep 30
Waxing Crescent
Oct 1
First Quarter
Oct 8
Full
Oct 15
Last Quarter
Oct 23
New

Yesterday's Extremes

Country Highs Country Lows

Community

WunderPhotos

Upload Photos

1,757,719 photos uploaded!

Nearby

Snow Depth

Not available.

Earthquake Activity

City Distance Mag. Time & Date
No recent earthquake activity has been reported nearby.
Minimum magnitude displayed is 2.5.

Coastal Water Temperatures

Place Temperature
No Stations Reporting

Nearby Weather Stations